Decoded Metar for LFBT (TARBES in FRANCE) (IATA:LDE) | Meteo·Mobile Aviation Weather
aviador You're here:

LFBT Decoded Metar

TARBES in FRANCE
Report Time2018-10-18 16:00:00
UTC Time2018-10-18 16:23:12
Flight Rules mvfr MVFR
Wind040° at 04 kt
W.Decomp.*RWY 02: 3.8 kt HW 1.4 kt RCW
W.Rank040° ranks 21
Current wind is below 040° avg. (4.5)
Visibility9999 m
Phenomena:Light Rain
Clouds:Broken 024 Hf
Overcast 029 Hf
Expected CloudBase > 1,600 ft AGL from Temp-Dew spread
Ceiling2,400 ft
Temp17°C (ISA +4)
Dew Point13°C (77% RH)
AAT16.5°C
QNH1015 hPa
Density Alt1,841 ft
Elevation1,191 ft
Report Wrong Elevation
Raw Report
LFBT 181600Z AUTO 04004KT 9999 BKN024 OVC029 17/13 Q1015 TEMPO
4000 -RA BKN010=

Extra information for LFBT:More info

Metar Taf Metar & Taf Last 4 Metars F.Rules Stats Wind Profile Meteogram Temp Stats Airport Information Weather charts Add Link Nearby VenuesMetar ALERT Operation Metar Decoded Social comments